sensor_id;sensor_type;location;lat;lon;timestamp;temperature;humidity
41481;DHT22;27217;51.220;5.308;2023-06-19T00:00:06;21.70;99.90
41481;DHT22;27217;51.220;5.308;2023-06-19T00:02:40;21.50;99.90
41481;DHT22;27217;51.220;5.308;2023-06-19T00:05:06;21.90;99.90
41481;DHT22;27217;51.220;5.308;2023-06-19T00:07:34;21.70;99.90
41481;DHT22;27217;51.220;5.308;2023-06-19T00:10:00;21.60;99.90
41481;DHT22;27217;51.220;5.308;2023-06-19T00:12:26;21.40;99.90
41481;DHT22;27217;51.220;5.308;2023-06-19T00:14:52;21.30;99.90
41481;DHT22;27217;51.220;5.308;2023-06-19T00:17:17;21.60;99.90
41481;DHT22;27217;51.220;5.308;2023-06-19T00:19:44;21.70;99.90
41481;DHT22;27217;51.220;5.308;2023-06-19T00:22:10;21.70;99.90
41481;DHT22;27217;51.220;5.308;2023-06-19T00:24:36;21.50;99.90
41481;DHT22;27217;51.220;5.308;2023-06-19T00:27:01;21.40;99.90
41481;DHT22;27217;51.220;5.308;2023-06-19T00:29:29;21.40;99.90
41481;DHT22;27217;51.220;5.308;2023-06-19T00:31:55;21.50;99.90
41481;DHT22;27217;51.220;5.308;2023-06-19T00:34:21;21.10;99.90
41481;DHT22;27217;51.220;5.308;2023-06-19T00:36:52;21.10;99.90
41481;DHT22;27217;51.220;5.308;2023-06-19T00:39:25;20.70;99.90
41481;DHT22;27217;51.220;5.308;2023-06-19T00:41:55;20.50;99.90
41481;DHT22;27217;51.220;5.308;2023-06-19T00:44:21;20.40;99.90
41481;DHT22;27217;51.220;5.308;2023-06-19T00:46:50;20.80;99.90
41481;DHT22;27217;51.220;5.308;2023-06-19T00:49:17;20.90;99.90
41481;DHT22;27217;51.220;5.308;2023-06-19T00:51:43;20.80;99.90
41481;DHT22;27217;51.220;5.308;2023-06-19T00:54:09;20.80;99.90
41481;DHT22;27217;51.220;5.308;2023-06-19T00:56:37;20.80;99.90
41481;DHT22;27217;51.220;5.308;2023-06-19T00:59:08;20.70;99.90
41481;DHT22;27217;51.220;5.308;2023-06-19T01:01:37;20.60;99.90
41481;DHT22;27217;51.220;5.308;2023-06-19T01:04:04;20.50;99.90
41481;DHT22;27217;51.220;5.308;2023-06-19T01:06:35;20.50;99.90
41481;DHT22;27217;51.220;5.308;2023-06-19T01:09:09;20.50;99.90
41481;DHT22;27217;51.220;5.308;2023-06-19T01:11:51;20.40;99.90
41481;DHT22;27217;51.220;5.308;2023-06-19T01:14:59;20.40;99.90
41481;DHT22;27217;51.220;5.308;2023-06-19T01:17:28;20.20;99.90
41481;DHT22;27217;51.220;5.308;2023-06-19T01:19:59;20.10;99.90
41481;DHT22;27217;51.220;5.308;2023-06-19T01:22:32;19.90;99.90
41481;DHT22;27217;51.220;5.308;2023-06-19T01:24:58;19.80;99.90
41481;DHT22;27217;51.220;5.308;2023-06-19T01:27:31;19.80;99.90
41481;DHT22;27217;51.220;5.308;2023-06-19T01:29:58;19.70;99.90
41481;DHT22;27217;51.220;5.308;2023-06-19T01:32:54;19.90;99.90
41481;DHT22;27217;51.220;5.308;2023-06-19T01:35:25;20.10;99.90
41481;DHT22;27217;51.220;5.308;2023-06-19T01:37:53;20.00;99.90
41481;DHT22;27217;51.220;5.308;2023-06-19T01:40:20;19.90;99.90
41481;DHT22;27217;51.220;5.308;2023-06-19T01:42:54;20.00;99.90
41481;DHT22;27217;51.220;5.308;2023-06-19T01:45:20;19.90;99.90
41481;DHT22;27217;51.220;5.308;2023-06-19T01:47:47;20.10;99.90
41481;DHT22;27217;51.220;5.308;2023-06-19T01:50:12;19.90;99.90
41481;DHT22;27217;51.220;5.308;2023-06-19T01:52:39;19.80;99.90
41481;DHT22;27217;51.220;5.308;2023-06-19T01:55:05;19.70;99.90
41481;DHT22;27217;51.220;5.308;2023-06-19T01:57:32;19.80;99.90
41481;DHT22;27217;51.220;5.308;2023-06-19T01:59:58;19.90;99.90
41481;DHT22;27217;51.220;5.308;2023-06-19T02:02:24;19.80;99.90
41481;DHT22;27217;51.220;5.308;2023-06-19T02:04:50;19.80;99.90
41481;DHT22;27217;51.220;5.308;2023-06-19T02:07:16;19.70;99.90
41481;DHT22;27217;51.220;5.308;2023-06-19T02:09:42;19.70;99.90
41481;DHT22;27217;51.220;5.308;2023-06-19T02:12:09;19.70;99.90
41481;DHT22;27217;51.220;5.308;2023-06-19T02:14:35;19.80;99.90
41481;DHT22;27217;51.220;5.308;2023-06-19T02:17:01;19.90;99.90
41481;DHT22;27217;51.220;5.308;2023-06-19T02:19:27;19.90;99.90
41481;DHT22;27217;51.220;5.308;2023-06-19T02:21:52;19.50;99.90
41481;DHT22;27217;51.220;5.308;2023-06-19T02:24:18;19.40;99.90
41481;DHT22;27217;51.220;5.308;2023-06-19T02:26:44;19.40;99.90
41481;DHT22;27217;51.220;5.308;2023-06-19T02:29:10;19.50;99.90
41481;DHT22;27217;51.220;5.308;2023-06-19T02:31:36;19.50;99.90
41481;DHT22;27217;51.220;5.308;2023-06-19T02:34:02;19.60;99.90
41481;DHT22;27217;51.220;5.308;2023-06-19T02:36:28;19.30;99.90
41481;DHT22;27217;51.220;5.308;2023-06-19T02:38:55;19.10;99.90
41481;DHT22;27217;51.220;5.308;2023-06-19T02:41:21;18.90;99.90
41481;DHT22;27217;51.220;5.308;2023-06-19T02:43:47;19.00;99.90
41481;DHT22;27217;51.220;5.308;2023-06-19T02:46:13;19.20;99.90
41481;DHT22;27217;51.220;5.308;2023-06-19T02:48:39;18.90;99.90
41481;DHT22;27217;51.220;5.308;2023-06-19T02:51:05;18.90;99.90
41481;DHT22;27217;51.220;5.308;2023-06-19T02:53:31;19.00;99.90
41481;DHT22;27217;51.220;5.308;2023-06-19T02:55:59;18.90;99.90
41481;DHT22;27217;51.220;5.308;2023-06-19T02:58:25;18.90;99.90
41481;DHT22;27217;51.220;5.308;2023-06-19T03:00:52;19.00;99.90
41481;DHT22;27217;51.220;5.308;2023-06-19T03:03:18;18.90;99.90
41481;DHT22;27217;51.220;5.308;2023-06-19T03:05:44;18.90;99.90
41481;DHT22;27217;51.220;5.308;2023-06-19T03:08:10;18.80;99.90
41481;DHT22;27217;51.220;5.308;2023-06-19T03:10:36;19.10;99.90
41481;DHT22;27217;51.220;5.308;2023-06-19T03:13:02;19.20;99.90
41481;DHT22;27217;51.220;5.308;2023-06-19T03:15:28;19.20;99.90
41481;DHT22;27217;51.220;5.308;2023-06-19T03:17:53;19.30;99.90
41481;DHT22;27217;51.220;5.308;2023-06-19T03:20:19;19.30;99.90
41481;DHT22;27217;51.220;5.308;2023-06-19T03:22:46;19.30;99.90
41481;DHT22;27217;51.220;5.308;2023-06-19T03:25:12;19.50;99.90
41481;DHT22;27217;51.220;5.308;2023-06-19T03:27:39;19.40;99.90
41481;DHT22;27217;51.220;5.308;2023-06-19T03:30:05;19.20;99.90
41481;DHT22;27217;51.220;5.308;2023-06-19T03:32:35;19.20;99.90
41481;DHT22;27217;51.220;5.308;2023-06-19T03:35:04;19.00;99.90
41481;DHT22;27217;51.220;5.308;2023-06-19T03:37:30;19.30;99.90
41481;DHT22;27217;51.220;5.308;2023-06-19T03:39:58;19.40;99.90
41481;DHT22;27217;51.220;5.308;2023-06-19T03:42:23;19.40;99.90
41481;DHT22;27217;51.220;5.308;2023-06-19T03:44:49;19.40;99.90
41481;DHT22;27217;51.220;5.308;2023-06-19T03:47:15;19.40;99.90
41481;DHT22;27217;51.220;5.308;2023-06-19T03:49:42;19.30;99.90
41481;DHT22;27217;51.220;5.308;2023-06-19T03:52:08;19.40;99.90
41481;DHT22;27217;51.220;5.308;2023-06-19T03:54:34;19.30;99.90
41481;DHT22;27217;51.220;5.308;2023-06-19T03:57:00;19.40;99.90
41481;DHT22;27217;51.220;5.308;2023-06-19T03:59:27;19.40;99.90
41481;DHT22;27217;51.220;5.308;2023-06-19T04:01:53;19.20;99.90
41481;DHT22;27217;51.220;5.308;2023-06-19T04:04:18;19.30;99.90
41481;DHT22;27217;51.220;5.308;2023-06-19T04:06:44;19.40;99.90
41481;DHT22;27217;51.220;5.308;2023-06-19T04:09:12;19.30;99.90
41481;DHT22;27217;51.220;5.308;2023-06-19T04:11:38;19.60;99.90
41481;DHT22;27217;51.220;5.308;2023-06-19T04:14:04;19.60;99.90
41481;DHT22;27217;51.220;5.308;2023-06-19T04:16:30;19.40;99.90
41481;DHT22;27217;51.220;5.308;2023-06-19T04:18:56;19.40;99.90
41481;DHT22;27217;51.220;5.308;2023-06-19T04:21:22;19.30;99.90
41481;DHT22;27217;51.220;5.308;2023-06-19T04:23:48;19.30;99.90
41481;DHT22;27217;51.220;5.308;2023-06-19T04:26:14;19.50;99.90
41481;DHT22;27217;51.220;5.308;2023-06-19T04:28:40;19.50;99.90
41481;DHT22;27217;51.220;5.308;2023-06-19T04:31:07;19.40;99.90
41481;DHT22;27217;51.220;5.308;2023-06-19T04:33:33;19.40;99.90
41481;DHT22;27217;51.220;5.308;2023-06-19T04:35:59;19.70;99.90
41481;DHT22;27217;51.220;5.308;2023-06-19T04:38:26;19.70;99.90
41481;DHT22;27217;51.220;5.308;2023-06-19T04:40:52;19.60;99.90
41481;DHT22;27217;51.220;5.308;2023-06-19T04:43:17;19.70;99.90
41481;DHT22;27217;51.220;5.308;2023-06-19T04:45:44;19.60;99.90
41481;DHT22;27217;51.220;5.308;2023-06-19T04:48:10;19.90;99.90
41481;DHT22;27217;51.220;5.308;2023-06-19T04:50:36;19.80;99.90
41481;DHT22;27217;51.220;5.308;2023-06-19T04:53:02;19.90;99.90
41481;DHT22;27217;51.220;5.308;2023-06-19T04:55:29;19.90;99.90
41481;DHT22;27217;51.220;5.308;2023-06-19T04:57:56;19.80;99.90
41481;DHT22;27217;51.220;5.308;2023-06-19T05:00:22;20.10;99.90
41481;DHT22;27217;51.220;5.308;2023-06-19T05:02:49;20.00;99.90
41481;DHT22;27217;51.220;5.308;2023-06-19T05:05:16;20.10;99.90
41481;DHT22;27217;51.220;5.308;2023-06-19T05:07:42;20.40;99.90
41481;DHT22;27217;51.220;5.308;2023-06-19T05:10:08;20.60;99.90
41481;DHT22;27217;51.220;5.308;2023-06-19T05:12:35;20.80;99.90
41481;DHT22;27217;51.220;5.308;2023-06-19T05:15:01;20.70;99.90
41481;DHT22;27217;51.220;5.308;2023-06-19T05:17:28;20.60;99.90
41481;DHT22;27217;51.220;5.308;2023-06-19T05:19:54;20.30;99.90
41481;DHT22;27217;51.220;5.308;2023-06-19T05:22:20;20.20;99.90
41481;DHT22;27217;51.220;5.308;2023-06-19T05:24:47;20.00;99.90
41481;DHT22;27217;51.220;5.308;2023-06-19T05:27:13;20.00;99.90
41481;DHT22;27217;51.220;5.308;2023-06-19T05:29:39;19.90;99.90
41481;DHT22;27217;51.220;5.308;2023-06-19T05:32:05;20.20;99.90
41481;DHT22;27217;51.220;5.308;2023-06-19T05:34:31;20.40;99.90
41481;DHT22;27217;51.220;5.308;2023-06-19T05:36:58;20.30;99.90
41481;DHT22;27217;51.220;5.308;2023-06-19T05:39:26;20.10;99.90
41481;DHT22;27217;51.220;5.308;2023-06-19T05:41:52;20.20;99.90
41481;DHT22;27217;51.220;5.308;2023-06-19T05:44:17;20.00;99.90
41481;DHT22;27217;51.220;5.308;2023-06-19T05:46:44;20.00;99.90
41481;DHT22;27217;51.220;5.308;2023-06-19T05:49:10;20.20;99.90
41481;DHT22;27217;51.220;5.308;2023-06-19T05:51:36;20.50;99.90
41481;DHT22;27217;51.220;5.308;2023-06-19T05:54:02;20.40;99.90
41481;DHT22;27217;51.220;5.308;2023-06-19T05:56:33;20.20;99.90
41481;DHT22;27217;51.220;5.308;2023-06-19T05:58:59;20.40;99.90
41481;DHT22;27217;51.220;5.308;2023-06-19T06:01:25;20.60;99.90
41481;DHT22;27217;51.220;5.308;2023-06-19T06:03:54;20.40;99.90
41481;DHT22;27217;51.220;5.308;2023-06-19T06:06:20;20.20;99.90
41481;DHT22;27217;51.220;5.308;2023-06-19T06:08:45;20.20;99.90
41481;DHT22;27217;51.220;5.308;2023-06-19T06:11:11;20.40;99.90
41481;DHT22;27217;51.220;5.308;2023-06-19T06:13:37;20.60;99.90
41481;DHT22;27217;51.220;5.308;2023-06-19T06:16:03;20.50;99.90
41481;DHT22;27217;51.220;5.308;2023-06-19T06:18:29;20.40;99.90
41481;DHT22;27217;51.220;5.308;2023-06-19T06:20:55;20.50;99.90
41481;DHT22;27217;51.220;5.308;2023-06-19T06:23:20;20.40;99.90
41481;DHT22;27217;51.220;5.308;2023-06-19T06:25:46;20.40;99.90
41481;DHT22;27217;51.220;5.308;2023-06-19T06:28:12;20.70;99.90
41481;DHT22;27217;51.220;5.308;2023-06-19T06:30:38;20.80;99.90
41481;DHT22;27217;51.220;5.308;2023-06-19T06:33:04;20.60;99.90
41481;DHT22;27217;51.220;5.308;2023-06-19T06:35:30;20.80;99.90
41481;DHT22;27217;51.220;5.308;2023-06-19T06:37:56;21.00;99.90
41481;DHT22;27217;51.220;5.308;2023-06-19T06:40:22;21.10;99.90
41481;DHT22;27217;51.220;5.308;2023-06-19T06:42:49;21.00;99.90
41481;DHT22;27217;51.220;5.308;2023-06-19T06:45:15;21.10;99.90
41481;DHT22;27217;51.220;5.308;2023-06-19T06:47:45;21.00;99.90
41481;DHT22;27217;51.220;5.308;2023-06-19T06:50:11;20.80;99.90
41481;DHT22;27217;51.220;5.308;2023-06-19T06:52:37;20.70;99.90
41481;DHT22;27217;51.220;5.308;2023-06-19T06:55:04;20.70;99.90
41481;DHT22;27217;51.220;5.308;2023-06-19T06:57:30;20.90;99.90
41481;DHT22;27217;51.220;5.308;2023-06-19T06:59:56;20.70;99.90
41481;DHT22;27217;51.220;5.308;2023-06-19T07:02:22;20.60;99.90
41481;DHT22;27217;51.220;5.308;2023-06-19T07:04:47;20.60;99.90
41481;DHT22;27217;51.220;5.308;2023-06-19T07:07:13;20.70;99.90
41481;DHT22;27217;51.220;5.308;2023-06-19T07:09:39;21.00;99.90
41481;DHT22;27217;51.220;5.308;2023-06-19T07:12:08;21.10;99.90
41481;DHT22;27217;51.220;5.308;2023-06-19T07:14:33;21.10;99.90
41481;DHT22;27217;51.220;5.308;2023-06-19T07:17:00;20.80;99.90
41481;DHT22;27217;51.220;5.308;2023-06-19T07:19:25;21.10;99.90
41481;DHT22;27217;51.220;5.308;2023-06-19T07:21:51;21.10;99.90
41481;DHT22;27217;51.220;5.308;2023-06-19T07:24:18;21.20;99.90
41481;DHT22;27217;51.220;5.308;2023-06-19T07:26:46;21.30;99.90
41481;DHT22;27217;51.220;5.308;2023-06-19T07:29:12;21.10;99.90
41481;DHT22;27217;51.220;5.308;2023-06-19T07:31:37;21.00;99.90
41481;DHT22;27217;51.220;5.308;2023-06-19T07:34:03;20.80;99.90
41481;DHT22;27217;51.220;5.308;2023-06-19T07:36:29;20.90;99.90
41481;DHT22;27217;51.220;5.308;2023-06-19T07:38:55;21.00;99.90
41481;DHT22;27217;51.220;5.308;2023-06-19T07:41:21;21.00;99.90
41481;DHT22;27217;51.220;5.308;2023-06-19T07:43:47;21.00;99.90
41481;DHT22;27217;51.220;5.308;2023-06-19T07:46:12;21.00;99.90
41481;DHT22;27217;51.220;5.308;2023-06-19T07:48:38;21.20;99.90
41481;DHT22;27217;51.220;5.308;2023-06-19T07:51:04;21.00;99.90
41481;DHT22;27217;51.220;5.308;2023-06-19T07:53:30;21.40;99.90
41481;DHT22;27217;51.220;5.308;2023-06-19T07:55:56;21.70;99.90
41481;DHT22;27217;51.220;5.308;2023-06-19T07:58:22;21.70;99.90
41481;DHT22;27217;51.220;5.308;2023-06-19T08:00:48;21.80;99.90
41481;DHT22;27217;51.220;5.308;2023-06-19T08:03:14;21.70;99.90
41481;DHT22;27217;51.220;5.308;2023-06-19T08:05:47;22.00;99.90
41481;DHT22;27217;51.220;5.308;2023-06-19T08:08:13;22.30;99.90
41481;DHT22;27217;51.220;5.308;2023-06-19T08:10:40;22.30;99.90
41481;DHT22;27217;51.220;5.308;2023-06-19T08:13:07;22.20;99.90
41481;DHT22;27217;51.220;5.308;2023-06-19T08:15:32;22.40;99.90
41481;DHT22;27217;51.220;5.308;2023-06-19T08:18:01;22.70;99.90
41481;DHT22;27217;51.220;5.308;2023-06-19T08:20:27;22.50;99.90
41481;DHT22;27217;51.220;5.308;2023-06-19T08:22:53;22.90;99.90
41481;DHT22;27217;51.220;5.308;2023-06-19T08:25:20;22.60;99.90
41481;DHT22;27217;51.220;5.308;2023-06-19T08:27:45;22.60;99.90
41481;DHT22;27217;51.220;5.308;2023-06-19T08:30:11;22.70;99.90
41481;DHT22;27217;51.220;5.308;2023-06-19T08:32:37;22.60;99.90
41481;DHT22;27217;51.220;5.308;2023-06-19T08:35:03;22.50;99.90
41481;DHT22;27217;51.220;5.308;2023-06-19T08:37:29;22.40;99.90
41481;DHT22;27217;51.220;5.308;2023-06-19T08:39:55;22.60;99.90
41481;DHT22;27217;51.220;5.308;2023-06-19T08:42:22;22.60;99.90
41481;DHT22;27217;51.220;5.308;2023-06-19T08:44:48;22.90;99.90
41481;DHT22;27217;51.220;5.308;2023-06-19T08:47:14;22.60;99.90
41481;DHT22;27217;51.220;5.308;2023-06-19T08:49:40;22.40;99.90
41481;DHT22;27217;51.220;5.308;2023-06-19T08:52:07;22.20;99.90
41481;DHT22;27217;51.220;5.308;2023-06-19T08:54:33;22.40;99.90
41481;DHT22;27217;51.220;5.308;2023-06-19T08:57:02;22.00;99.90
41481;DHT22;27217;51.220;5.308;2023-06-19T08:59:30;21.90;99.90
41481;DHT22;27217;51.220;5.308;2023-06-19T09:01:57;22.00;99.90
41481;DHT22;27217;51.220;5.308;2023-06-19T09:04:27;22.00;99.90
41481;DHT22;27217;51.220;5.308;2023-06-19T09:07:01;22.00;99.90
41481;DHT22;27217;51.220;5.308;2023-06-19T09:09:28;22.20;99.90
41481;DHT22;27217;51.220;5.308;2023-06-19T09:14:37;22.60;99.90
41481;DHT22;27217;51.220;5.308;2023-06-19T09:17:05;22.10;99.90
41481;DHT22;27217;51.220;5.308;2023-06-19T09:19:32;22.10;99.90
41481;DHT22;27217;51.220;5.308;2023-06-19T09:22:07;22.60;99.90
41481;DHT22;27217;51.220;5.308;2023-06-19T09:24:38;22.50;99.90
41481;DHT22;27217;51.220;5.308;2023-06-19T09:27:07;22.30;99.90
41481;DHT22;27217;51.220;5.308;2023-06-19T09:29:36;22.40;99.90
41481;DHT22;27217;51.220;5.308;2023-06-19T09:32:27;22.70;99.90
41481;DHT22;27217;51.220;5.308;2023-06-19T09:34:56;22.90;99.90
41481;DHT22;27217;51.220;5.308;2023-06-19T09:37:31;23.00;99.90
41481;DHT22;27217;51.220;5.308;2023-06-19T09:40:02;22.90;99.90
41481;DHT22;27217;51.220;5.308;2023-06-19T09:42:39;23.10;99.90
41481;DHT22;27217;51.220;5.308;2023-06-19T09:45:07;23.30;99.90
41481;DHT22;27217;51.220;5.308;2023-06-19T09:47:45;23.50;99.90
41481;DHT22;27217;51.220;5.308;2023-06-19T09:50:13;23.60;99.90
41481;DHT22;27217;51.220;5.308;2023-06-19T09:52:43;23.80;99.90
41481;DHT22;27217;51.220;5.308;2023-06-19T09:55:10;23.90;99.90
41481;DHT22;27217;51.220;5.308;2023-06-19T09:57:39;23.80;99.90
41481;DHT22;27217;51.220;5.308;2023-06-19T10:00:06;24.30;99.90
41481;DHT22;27217;51.220;5.308;2023-06-19T10:02:46;24.40;99.90
41481;DHT22;27217;51.220;5.308;2023-06-19T10:05:31;24.00;99.90
41481;DHT22;27217;51.220;5.308;2023-06-19T10:07:57;24.40;99.90
41481;DHT22;27217;51.220;5.308;2023-06-19T10:10:28;24.50;99.90
41481;DHT22;27217;51.220;5.308;2023-06-19T10:13:15;24.40;99.60
41481;DHT22;27217;51.220;5.308;2023-06-19T10:15:44;24.90;99.00
41481;DHT22;27217;51.220;5.308;2023-06-19T10:18:15;25.20;98.40
41481;DHT22;27217;51.220;5.308;2023-06-19T10:20:42;25.30;97.80
41481;DHT22;27217;51.220;5.308;2023-06-19T10:25:45;25.60;97.10
41481;DHT22;27217;51.220;5.308;2023-06-19T10:28:30;26.10;95.10
41481;DHT22;27217;51.220;5.308;2023-06-19T10:31:02;25.30;94.80
41481;DHT22;27217;51.220;5.308;2023-06-19T10:33:31;25.70;95.00
41481;DHT22;27217;51.220;5.308;2023-06-19T10:35:59;25.40;96.30
41481;DHT22;27217;51.220;5.308;2023-06-19T10:38:30;25.70;95.20
41481;DHT22;27217;51.220;5.308;2023-06-19T10:40:57;26.30;94.00
41481;DHT22;27217;51.220;5.308;2023-06-19T10:43:24;26.40;93.30
41481;DHT22;27217;51.220;5.308;2023-06-19T10:45:54;26.40;92.30
41481;DHT22;27217;51.220;5.308;2023-06-19T10:48:21;25.90;92.10
41481;DHT22;27217;51.220;5.308;2023-06-19T10:50:49;25.90;92.50
41481;DHT22;27217;51.220;5.308;2023-06-19T10:53:30;26.80;91.20
41481;DHT22;27217;51.220;5.308;2023-06-19T10:56:02;26.10;92.80
41481;DHT22;27217;51.220;5.308;2023-06-19T10:58:29;26.30;91.50
41481;DHT22;27217;51.220;5.308;2023-06-19T11:00:55;26.10;91.00
41481;DHT22;27217;51.220;5.308;2023-06-19T11:03:22;26.30;91.30
41481;DHT22;27217;51.220;5.308;2023-06-19T11:05:48;26.30;90.30
41481;DHT22;27217;51.220;5.308;2023-06-19T11:08:34;26.60;87.40
41481;DHT22;27217;51.220;5.308;2023-06-19T11:11:00;26.80;85.60
41481;DHT22;27217;51.220;5.308;2023-06-19T11:13:25;26.80;84.60
41481;DHT22;27217;51.220;5.308;2023-06-19T11:16:07;27.60;80.80
41481;DHT22;27217;51.220;5.308;2023-06-19T11:18:33;27.30;79.60
41481;DHT22;27217;51.220;5.308;2023-06-19T11:20:59;28.60;72.70
41481;DHT22;27217;51.220;5.308;2023-06-19T11:23:28;30.40;64.60
41481;DHT22;27217;51.220;5.308;2023-06-19T11:26:01;32.00;59.10
41481;DHT22;27217;51.220;5.308;2023-06-19T11:28:27;31.90;57.40
41481;DHT22;27217;51.220;5.308;2023-06-19T11:31:00;31.60;56.20
41481;DHT22;27217;51.220;5.308;2023-06-19T11:33:29;31.90;53.90
41481;DHT22;27217;51.220;5.308;2023-06-19T11:36:00;31.30;55.50
41481;DHT22;27217;51.220;5.308;2023-06-19T11:38:27;31.70;54.80
41481;DHT22;27217;51.220;5.308;2023-06-19T11:40:54;31.50;55.00
41481;DHT22;27217;51.220;5.308;2023-06-19T11:43:25;30.80;55.60
41481;DHT22;27217;51.220;5.308;2023-06-19T11:45:51;31.70;54.20
41481;DHT22;27217;51.220;5.308;2023-06-19T11:48:25;33.00;50.80
41481;DHT22;27217;51.220;5.308;2023-06-19T11:50:52;33.60;49.20
41481;DHT22;27217;51.220;5.308;2023-06-19T11:53:19;33.00;50.50
41481;DHT22;27217;51.220;5.308;2023-06-19T11:55:45;31.60;50.90
41481;DHT22;27217;51.220;5.308;2023-06-19T11:58:11;32.40;50.70
41481;DHT22;27217;51.220;5.308;2023-06-19T12:00:38;33.00;49.90
41481;DHT22;27217;51.220;5.308;2023-06-19T12:03:04;33.20;49.40
41481;DHT22;27217;51.220;5.308;2023-06-19T12:05:30;31.90;49.20
41481;DHT22;27217;51.220;5.308;2023-06-19T12:07:56;33.00;47.50
41481;DHT22;27217;51.220;5.308;2023-06-19T12:10:22;34.80;45.50
41481;DHT22;27217;51.220;5.308;2023-06-19T12:12:47;35.60;43.80
41481;DHT22;27217;51.220;5.308;2023-06-19T12:15:14;35.60;43.40
41481;DHT22;27217;51.220;5.308;2023-06-19T12:17:40;35.80;41.60
41481;DHT22;27217;51.220;5.308;2023-06-19T12:20:06;35.60;42.50
41481;DHT22;27217;51.220;5.308;2023-06-19T12:22:34;33.80;44.20
41481;DHT22;27217;51.220;5.308;2023-06-19T12:25:01;34.20;43.30
41481;DHT22;27217;51.220;5.308;2023-06-19T12:27:28;34.40;40.70
41481;DHT22;27217;51.220;5.308;2023-06-19T12:29:54;32.40;45.30
41481;DHT22;27217;51.220;5.308;2023-06-19T12:32:20;33.50;44.10
41481;DHT22;27217;51.220;5.308;2023-06-19T12:34:46;34.40;42.80
41481;DHT22;27217;51.220;5.308;2023-06-19T12:37:16;35.20;41.60
41481;DHT22;27217;51.220;5.308;2023-06-19T12:39:43;35.70;40.40
41481;DHT22;27217;51.220;5.308;2023-06-19T12:42:09;36.90;38.90
41481;DHT22;27217;51.220;5.308;2023-06-19T12:44:40;35.80;38.80
41481;DHT22;27217;51.220;5.308;2023-06-19T12:47:07;36.30;39.50
41481;DHT22;27217;51.220;5.308;2023-06-19T12:49:33;34.30;40.80
41481;DHT22;27217;51.220;5.308;2023-06-19T12:51:59;35.00;40.60
41481;DHT22;27217;51.220;5.308;2023-06-19T12:54:25;35.10;40.60
41481;DHT22;27217;51.220;5.308;2023-06-19T12:56:52;36.00;38.80
41481;DHT22;27217;51.220;5.308;2023-06-19T12:59:18;36.80;37.70
41481;DHT22;27217;51.220;5.308;2023-06-19T13:01:43;36.80;37.90
41481;DHT22;27217;51.220;5.308;2023-06-19T13:04:10;34.20;40.60
41481;DHT22;27217;51.220;5.308;2023-06-19T13:06:36;33.50;42.40
41481;DHT22;27217;51.220;5.308;2023-06-19T13:09:03;35.10;40.70
41481;DHT22;27217;51.220;5.308;2023-06-19T13:11:30;35.20;40.50
41481;DHT22;27217;51.220;5.308;2023-06-19T13:13:57;35.10;40.10
41481;DHT22;27217;51.220;5.308;2023-06-19T13:16:22;34.20;41.10
41481;DHT22;27217;51.220;5.308;2023-06-19T13:18:51;34.60;40.10
41481;DHT22;27217;51.220;5.308;2023-06-19T13:21:18;35.70;38.80
41481;DHT22;27217;51.220;5.308;2023-06-19T13:23:44;36.90;37.40
41481;DHT22;27217;51.220;5.308;2023-06-19T13:26:10;36.90;37.70
41481;DHT22;27217;51.220;5.308;2023-06-19T13:28:36;34.40;40.00
41481;DHT22;27217;51.220;5.308;2023-06-19T13:31:03;35.00;40.10
41481;DHT22;27217;51.220;5.308;2023-06-19T13:33:33;36.60;38.90
41481;DHT22;27217;51.220;5.308;2023-06-19T13:35:59;38.20;37.60
41481;DHT22;27217;51.220;5.308;2023-06-19T13:38:25;36.90;37.80
41481;DHT22;27217;51.220;5.308;2023-06-19T13:40:50;34.20;40.70
41481;DHT22;27217;51.220;5.308;2023-06-19T13:43:16;35.30;39.60
41481;DHT22;27217;51.220;5.308;2023-06-19T13:45:42;36.80;38.00
41481;DHT22;27217;51.220;5.308;2023-06-19T13:48:09;37.30;38.10
41481;DHT22;27217;51.220;5.308;2023-06-19T13:50:35;37.80;36.90
41481;DHT22;27217;51.220;5.308;2023-06-19T13:53:21;38.80;36.20
41481;DHT22;27217;51.220;5.308;2023-06-19T13:55:47;38.70;36.60
41481;DHT22;27217;51.220;5.308;2023-06-19T13:58:12;38.50;36.60
41481;DHT22;27217;51.220;5.308;2023-06-19T14:00:39;39.40;35.60
41481;DHT22;27217;51.220;5.308;2023-06-19T14:03:04;37.80;37.10
41481;DHT22;27217;51.220;5.308;2023-06-19T14:05:32;37.00;36.90
41481;DHT22;27217;51.220;5.308;2023-06-19T14:07:59;35.30;38.50
41481;DHT22;27217;51.220;5.308;2023-06-19T14:10:25;34.90;39.20
41481;DHT22;27217;51.220;5.308;2023-06-19T14:12:51;35.90;38.40
41481;DHT22;27217;51.220;5.308;2023-06-19T14:15:17;38.00;36.30
41481;DHT22;27217;51.220;5.308;2023-06-19T14:17:42;39.40;35.10
41481;DHT22;27217;51.220;5.308;2023-06-19T14:20:10;40.60;34.20
41481;DHT22;27217;51.220;5.308;2023-06-19T14:22:36;40.50;34.30
41481;DHT22;27217;51.220;5.308;2023-06-19T14:25:03;39.90;34.80
41481;DHT22;27217;51.220;5.308;2023-06-19T14:27:30;39.00;34.90
41481;DHT22;27217;51.220;5.308;2023-06-19T14:29:56;37.90;36.20
41481;DHT22;27217;51.220;5.308;2023-06-19T14:32:23;38.00;35.60
41481;DHT22;27217;51.220;5.308;2023-06-19T14:34:49;37.30;36.80
41481;DHT22;27217;51.220;5.308;2023-06-19T14:37:15;36.10;37.70
41481;DHT22;27217;51.220;5.308;2023-06-19T14:39:42;36.10;38.20
41481;DHT22;27217;51.220;5.308;2023-06-19T14:42:08;35.40;38.50
41481;DHT22;27217;51.220;5.308;2023-06-19T14:44:36;35.00;39.40
41481;DHT22;27217;51.220;5.308;2023-06-19T14:47:02;34.90;39.70
41481;DHT22;27217;51.220;5.308;2023-06-19T14:49:28;34.10;41.00
41481;DHT22;27217;51.220;5.308;2023-06-19T14:51:54;33.60;41.90
41481;DHT22;27217;51.220;5.308;2023-06-19T14:54:22;33.10;42.40
41481;DHT22;27217;51.220;5.308;2023-06-19T14:56:49;34.60;41.10
41481;DHT22;27217;51.220;5.308;2023-06-19T14:59:15;35.80;39.20
41481;DHT22;27217;51.220;5.308;2023-06-19T15:01:42;37.50;37.60
41481;DHT22;27217;51.220;5.308;2023-06-19T15:04:07;38.40;36.60
41481;DHT22;27217;51.220;5.308;2023-06-19T15:06:33;38.40;36.90
41481;DHT22;27217;51.220;5.308;2023-06-19T15:08:59;38.00;36.90
41481;DHT22;27217;51.220;5.308;2023-06-19T15:11:25;38.00;36.80
41481;DHT22;27217;51.220;5.308;2023-06-19T15:13:51;36.40;38.20
41481;DHT22;27217;51.220;5.308;2023-06-19T15:16:17;35.60;39.30
41481;DHT22;27217;51.220;5.308;2023-06-19T15:18:45;35.50;39.20
41481;DHT22;27217;51.220;5.308;2023-06-19T15:21:10;34.90;39.90
41481;DHT22;27217;51.220;5.308;2023-06-19T15:23:36;34.90;40.40
41481;DHT22;27217;51.220;5.308;2023-06-19T15:26:03;35.60;39.50
41481;DHT22;27217;51.220;5.308;2023-06-19T15:28:34;36.20;38.70
41481;DHT22;27217;51.220;5.308;2023-06-19T15:31:01;37.90;37.20
41481;DHT22;27217;51.220;5.308;2023-06-19T15:33:28;37.40;38.10
41481;DHT22;27217;51.220;5.308;2023-06-19T15:35:53;38.30;36.80